METAR Data
IDs: Format: Raw Decoded Include TAF

Data at: 2026 UTC 19 May 2019

PFYU 191956Z 00000KT 10SM BKN032 OVC042 16/08 A2977 RMK AO2 SLP103 T01560078
PFYU 191937Z 06005KT 10SM BKN028 OVC075 16/08 A2977 RMK AO2
PFYU 191856Z 00000KT 10SM BKN080 15/08 A2979 RMK AO2 SLP108 T01500083
PFYU 191756Z 00000KT 10SM SCT100 14/08 A2979 RMK AO2 SLP109 60000 T01440083 10144 20089 50002
PFYU 191656Z 00000KT 10SM BKN100 13/08 A2979 RMK AO2 SLP111 T01280078
PFYU 191556Z 00000KT 10SM OVC090 11/06 A2979 RMK AO2 SLP109 T01060061
PFYU 191456Z AUTO 00000KT 10SM OVC085 09/04 A2978 RMK AO2 RAB18E28 SLP108 P0000 60000 T00890044 53006
PFYU 191356Z AUTO 00000KT 10SM OVC090 09/04 A2978 RMK AO2 SLP106 T00890039
PFYU 191256Z AUTO 00000KT 10SM OVC090 09/03 A2977 RMK AO2 SLP103 T00890033
PFYU 191156Z AUTO 04004KT 10SM BKN085 BKN100 10/03 A2976 RMK AO2 SLP102 60000 T01000033 10167 20094 53004
PFYU 191056Z AUTO 03005KT 10SM OVC085 11/04 A2976 RMK AO2 SLP098 T01110039
PFYU 190956Z AUTO 03004KT 10SM OVC085 12/06 A2976 RMK AO2 RAE00 SLP098 P0000 T01220056
PFYU 190856Z AUTO 00000KT 10SM -RA SCT070 BKN085 OVC100 14/04 A2975 RMK AO2 RAB44 SLP096 P0000 60000 T01390039 402060056 53009
PFYU 190756Z AUTO 06003KT 10SM OVC095 15/04 A2975 RMK AO2 SLP096 T01500039
PFYU 190656Z AUTO 03007KT 10SM CLR 16/03 A2973 RMK AO2 SLP089 T01560033
PFYU 190556Z AUTO 03007KT 10SM CLR 17/03 A2973 RMK AO2 SLP088 T01670033 10206 20167 53001
PFYU 190456Z AUTO 06006KT 10SM CLR 18/03 A2972 RMK AO2 SLP087 T01830033
PFYU 190356Z AUTO 05007KT 10SM OVC095 19/03 A2972 RMK AO2 SLP087 T01890033
PFYU 190256Z VRB06G14KT 10SM BKN070 BKN085 19/03 A2972 RMK AO2 SLP088 T01940028 56006
PFYU 190156Z 03007KT 10SM BKN080 19/03 A2973 RMK AO2 SLP091 T01940028
PFYU 190056Z 04006KT 10SM FEW065 19/03 A2973 RMK AO2 SLP092 T01890033
PFYU 182356Z 05007KT 10SM SCT060 19/03 A2974 RMK AO2 SLP094 T01890033 10189 20117 56007
PFYU 182256Z 36006KT 10SM SCT080 18/03 A2974 RMK AO2 SLP096 T01830033
PFYU 182156Z VRB03KT 10SM FEW090 FEW120 18/04 A2975 RMK AO2 SLP099 T01780039
PFYU 182056Z 08005KT 10SM CLR 17/03 A2976 RMK AO2 SLP102 T01670033 58003
PFYU 181956Z 06007KT 030V090 10SM CLR 15/02 A2977 RMK AO2 SLP104 T01500022
PFYU 181856Z 04006KT 10SM SCT120 13/02 A2977 RMK AO2 SLP106 T01330022
PFYU 181756Z VRB04KT 10SM CLR 12/02 A2977 RMK AO2 SLP105 T01220017 10122 20056 51009
PFYU 181556Z 04006KT 10SM CLR 09/01 A2976 RMK AO2 SLP101 T00890006
PFYU 181456Z AUTO 04010KT 10SM CLR 07/00 A2974 RMK AO2 SLP096 T00720000 50007
PFYU 181356Z AUTO 03006KT 10SM BKN080 06/00 A2975 RMK AO2 SLP099 T00610000
PFYU 181256Z AUTO 04008KT 10SM OVC090 06/00 A2973 RMK AO2 SLP093 T00610000
PFYU 181156Z AUTO 04009KT 10SM OVC085 07/00 A2972 RMK AO2 SLPNO 7//// T00670000 10128 20067 51016
PFYU 181056Z AUTO 04009KT 10SM OVC085 07/01 A2971 RMK AO2 SLPNO T00720006
PFYU 180956Z AUTO 05006KT 10SM BKN080 08/01 A2970 RMK AO2 SLPNO T00780011
PFYU 180856Z AUTO 04007KT 10SM CLR 09/02 A2967 RMK AO2 SLPNO T00890017 401830089 53014